Time;durP1;ratioP1;P1;durP2;ratioP2;P2;SDS_P1;SDS_P2;PMS_P1;PMS_P2;Temp;Humidity;BMP_temperature;BMP_pressure;BME280_temperature;BME280_humidity;BME280_pressure;Samples;Min_cycle;Max_cycle;Signal;HPM_P1;HPM_P2
2022/05/28 00:01:24;;;;;;;21.70;2.70;;;;;;;;;;5095766;28;20452;-70
2022/05/28 00:03:53;;;;;;;10.30;2.73;;;;;;;;;;5096159;28;20563;-71
2022/05/28 00:06:21;;;;;;;4.90;1.43;;;;;;;;;;5098212;28;20486;-71
2022/05/28 00:08:49;;;;;;;7.10;1.73;;;;;;;;;;5098808;28;20590;-70
2022/05/28 00:11:18;;;;;;;8.27;1.80;;;;;;;;;;5097232;28;20474;-70
2022/05/28 00:13:45;;;;;;;4.20;1.80;;;;;;;;;;5098475;28;20463;-70
2022/05/28 00:16:13;;;;;;;7.93;2.00;;;;;;;;;;5099499;28;20467;-71
2022/05/28 00:18:40;;;;;;;6.33;1.73;;;;;;;;;;5097751;28;20462;-71
2022/05/28 00:21:07;;;;;;;8.13;2.17;;;;;;;;;;5098648;28;20526;-70
2022/05/28 00:23:34;;;;;;;7.80;1.87;;;;;;;;;;5098069;28;20463;-71
2022/05/28 00:26:01;;;;;;;5.00;2.23;;;;;;;;;;5098531;28;20720;-70
2022/05/28 00:28:28;;;;;;;9.57;2.00;;;;;;;;;;5097469;28;20494;-70
2022/05/28 00:30:56;;;;;;;6.63;1.90;;;;;;;;;;5097782;28;20451;-71
2022/05/28 00:33:23;;;;;;;10.73;1.53;;;;;;;;;;5098242;28;20455;-71
2022/05/28 00:35:50;;;;;;;8.30;2.70;;;;;;;;;;5097461;28;20757;-71
2022/05/28 00:38:20;;;;;;;4.50;1.10;;;;;;;;;;5098398;28;20454;-70
2022/05/28 00:40:47;;;;;;;5.30;2.30;;;;;;;;;;5098679;28;20846;-70
2022/05/28 00:43:15;;;;;;;11.00;2.30;;;;;;;;;;5098475;28;20455;-70
2022/05/28 00:45:45;;;;;;;11.30;2.33;;;;;;;;;;5097891;28;20459;-70
2022/05/28 00:48:14;;;;;;;10.47;1.80;;;;;;;;;;5097322;28;20491;-69
2022/05/28 00:50:41;;;;;;;6.63;1.83;;;;;;;;;;5098115;28;20467;-69
2022/05/28 00:53:08;;;;;;;6.00;1.60;;;;;;;;;;5098193;28;20486;-70
2022/05/28 00:55:36;;;;;;;5.43;1.50;;;;;;;;;;5097228;28;20460;-69
2022/05/28 00:58:05;;;;;;;8.70;1.80;;;;;;;;;;5097650;28;20795;-70
2022/05/28 01:00:33;;;;;;;5.60;1.50;;;;;;;;;;5096524;28;20475;-70
2022/05/28 01:03:08;;;;;;;5.00;1.10;;;;;;;;;;5097790;28;20451;-70
2022/05/28 01:05:38;;;;;;;11.53;1.77;;;;;;;;;;5097022;28;20459;-69
2022/05/28 01:08:09;;;;;;;5.53;1.63;;;;;;;;;;5095837;28;20523;-70
2022/05/28 01:10:42;;;;;;;9.13;1.70;;;;;;;;;;5096707;28;20451;-70
2022/05/28 01:13:11;;;;;;;10.10;1.23;;;;;;;;;;5097208;28;20538;-70
2022/05/28 01:15:39;;;;;;;10.50;2.43;;;;;;;;;;5096482;28;20502;-70
2022/05/28 01:18:08;;;;;;;9.80;1.83;;;;;;;;;;5097120;28;20844;-70
2022/05/28 01:20:39;;;;;;;5.40;1.43;;;;;;;;;;5097510;28;20486;-70
2022/05/28 01:23:17;;;;;;;8.60;1.67;;;;;;;;;;5097353;28;20488;-70
2022/05/28 01:25:52;;;;;;;7.90;3.07;;;;;;;;;;5097160;28;20523;-70
2022/05/28 01:28:21;;;;;;;4.43;1.77;;;;;;;;;;5097523;28;20482;-70
2022/05/28 01:30:49;;;;;;;3.63;1.33;;;;;;;;;;5097432;28;20454;-70
2022/05/28 01:33:17;;;;;;;7.73;1.63;;;;;;;;;;5097181;28;20870;-70
2022/05/28 01:35:48;;;;;;;6.60;1.97;;;;;;;;;;5096488;28;20448;-69
2022/05/28 01:38:16;;;;;;;6.80;1.50;;;;;;;;;;5096811;28;20459;-70
2022/05/28 01:40:47;;;;;;;4.97;1.83;;;;;;;;;;5096894;28;20452;-70
2022/05/28 01:43:15;;;;;;;4.00;1.57;;;;;;;;;;5097168;28;20452;-69
2022/05/28 01:45:44;;;;;;;17.47;7.57;;;;;;;;;;5096856;28;20855;-70
2022/05/28 01:48:12;;;;;;;12.30;4.17;;;;;;;;;;5096467;28;20490;-70
2022/05/28 01:50:40;;;;;;;4.53;1.30;;;;;;;;;;5096880;28;20517;-70
2022/05/28 01:53:09;;;;;;;9.00;1.40;;;;;;;;;;5097976;28;20452;-71
2022/05/28 01:55:40;;;;;;;7.03;2.40;;;;;;;;;;5096249;28;20442;-70
2022/05/28 01:58:12;;;;;;;10.97;2.10;;;;;;;;;;5096772;28;20938;-70
2022/05/28 02:00:43;;;;;;;7.70;2.03;;;;;;;;;;5096811;28;20783;-70
2022/05/28 02:03:10;;;;;;;6.37;1.43;;;;;;;;;;5096192;28;20721;-70
2022/05/28 02:05:40;;;;;;;6.90;1.27;;;;;;;;;;5096009;28;20880;-70
2022/05/28 02:08:10;;;;;;;4.70;1.17;;;;;;;;;;5095957;28;20717;-71
2022/05/28 02:10:40;;;;;;;6.17;1.80;;;;;;;;;;5096487;28;20645;-71
2022/05/28 02:13:13;;;;;;;4.00;1.47;;;;;;;;;;5096414;28;20452;-73
2022/05/28 02:15:43;;;;;;;4.60;1.87;;;;;;;;;;5096482;28;20447;-71
2022/05/28 02:18:18;;;;;;;12.53;3.20;;;;;;;;;;5095454;28;20448;-71
2022/05/28 02:20:50;;;;;;;2.53;1.83;;;;;;;;;;5096267;28;20454;-71
2022/05/28 02:23:20;;;;;;;5.07;1.27;;;;;;;;;;5083871;28;20507;-71
2022/05/28 02:25:50;;;;;;;3.30;1.13;;;;;;;;;;5076454;28;20503;-72
2022/05/28 02:28:17;;;;;;;5.53;1.40;;;;;;;;;;5074635;28;20495;-70
2022/05/28 02:30:48;;;;;;;2.60;0.90;;;;;;;;;;5076343;28;20452;-71
2022/05/28 02:33:15;;;;;;;4.43;1.33;;;;;;;;;;5075859;28;20521;-70
2022/05/28 02:35:44;;;;;;;3.40;2.20;;;;;;;;;;5076250;28;20463;-71
2022/05/28 02:38:11;;;;;;;4.23;0.80;;;;;;;;;;5075685;28;20436;-71
2022/05/28 02:40:39;;;;;;;3.77;0.90;;;;;;;;;;5075941;28;20468;-70
2022/05/28 02:43:05;;;;;;;3.30;0.80;;;;;;;;;;5075623;28;20445;-71
2022/05/28 02:45:33;;;;;;;2.07;0.80;;;;;;;;;;5075734;28;20457;-71
2022/05/28 02:48:00;;;;;;;2.90;0.83;;;;;;;;;;5074959;28;20484;-70
2022/05/28 02:50:28;;;;;;;4.13;1.10;;;;;;;;;;5075755;28;20832;-70
2022/05/28 02:52:55;;;;;;;9.80;1.90;;;;;;;;;;5075661;28;20448;-71
2022/05/28 02:55:22;;;;;;;7.43;1.40;;;;;;;;;;5075887;28;20452;-70
2022/05/28 02:57:49;;;;;;;3.30;0.97;;;;;;;;;;5076191;28;20547;-70
2022/05/28 03:00:17;;;;;;;2.50;0.90;;;;;;;;;;5076047;28;20452;-71
2022/05/28 03:02:44;;;;;;;2.57;0.80;;;;;;;;;;5076546;28;20883;-70
2022/05/28 03:05:15;;;;;;;4.50;1.00;;;;;;;;;;5075508;28;20646;-70
2022/05/28 03:07:43;;;;;;;6.87;0.90;;;;;;;;;;5075006;28;20813;-70
2022/05/28 03:10:11;;;;;;;2.80;0.93;;;;;;;;;;5075566;28;20855;-70
2022/05/28 03:12:38;;;;;;;2.80;1.00;;;;;;;;;;5075000;28;20444;-70
2022/05/28 03:15:06;;;;;;;2.20;0.90;;;;;;;;;;5075774;28;20934;-70
2022/05/28 03:17:33;;;;;;;6.63;1.20;;;;;;;;;;5075530;28;20441;-70
2022/05/28 03:20:01;;;;;;;4.17;0.87;;;;;;;;;;5075084;28;20472;-70
2022/05/28 03:22:28;;;;;;;6.43;1.20;;;;;;;;;;5075704;28;20508;-70
2022/05/28 03:24:56;;;;;;;2.63;0.90;;;;;;;;;;5074784;28;20471;-70
2022/05/28 03:27:24;;;;;;;2.47;0.90;;;;;;;;;;5074831;28;20509;-70
2022/05/28 03:29:51;;;;;;;5.37;1.00;;;;;;;;;;5076264;28;20452;-71
2022/05/28 03:32:18;;;;;;;4.63;1.30;;;;;;;;;;5074931;28;20447;-71
2022/05/28 03:34:45;;;;;;;3.00;1.10;;;;;;;;;;5074005;28;20456;-71
2022/05/28 03:37:12;;;;;;;6.80;1.30;;;;;;;;;;5074859;28;20853;-71
2022/05/28 03:39:39;;;;;;;4.43;1.00;;;;;;;;;;5076808;28;20456;-71
2022/05/28 03:42:07;;;;;;;3.10;0.97;;;;;;;;;;5077958;28;20470;-71
2022/05/28 03:44:34;;;;;;;4.00;1.10;;;;;;;;;;5078142;28;20464;-71
2022/05/28 03:47:01;;;;;;;6.23;1.13;;;;;;;;;;5078907;28;20453;-71
2022/05/28 03:49:29;;;;;;;2.13;1.10;;;;;;;;;;5077835;28;20488;-71
2022/05/28 03:51:56;;;;;;;3.70;1.10;;;;;;;;;;5078662;28;20721;-71
2022/05/28 03:54:23;;;;;;;5.73;1.20;;;;;;;;;;5078077;28;20873;-70
2022/05/28 03:56:52;;;;;;;6.33;1.33;;;;;;;;;;5078927;28;20436;-70
2022/05/28 03:59:20;;;;;;;6.07;2.20;;;;;;;;;;5077545;28;20482;-70
2022/05/28 04:01:47;;;;;;;8.10;1.43;;;;;;;;;;5078168;28;20478;-70
2022/05/28 04:04:14;;;;;;;4.87;1.23;;;;;;;;;;5078245;28;20494;-70
2022/05/28 04:06:41;;;;;;;6.00;1.20;;;;;;;;;;5077680;28;20793;-70
2022/05/28 04:09:12;;;;;;;7.57;1.90;;;;;;;;;;5078002;28;20490;-69
2022/05/28 04:11:44;;;;;;;4.00;1.83;;;;;;;;;;5078211;28;20488;-71
2022/05/28 04:14:11;;;;;;;7.80;1.67;;;;;;;;;;5094986;28;20466;-70
2022/05/28 04:16:38;;;;;;;4.23;1.30;;;;;;;;;;5097164;28;20481;-70
2022/05/28 04:19:07;;;;;;;2.77;1.10;;;;;;;;;;5096816;28;20456;-71
2022/05/28 04:21:34;;;;;;;10.70;1.57;;;;;;;;;;5099412;28;20766;-70
2022/05/28 04:24:01;;;;;;;3.23;1.07;;;;;;;;;;5098301;28;20436;-71
2022/05/28 04:26:28;;;;;;;6.60;1.60;;;;;;;;;;5098222;28;20797;-69
2022/05/28 04:28:55;;;;;;;6.70;1.37;;;;;;;;;;5098604;28;20489;-69
2022/05/28 04:31:22;;;;;;;3.60;1.27;;;;;;;;;;5099495;28;20451;-69
2022/05/28 04:33:50;;;;;;;14.17;1.97;;;;;;;;;;5096783;28;20519;-69
2022/05/28 04:36:20;;;;;;;14.83;2.00;;;;;;;;;;5095735;28;21123;-70
2022/05/28 04:38:47;;;;;;;4.07;1.20;;;;;;;;;;5099322;28;20448;-69
2022/05/28 04:41:14;;;;;;;5.73;1.93;;;;;;;;;;5098606;28;20700;-70
2022/05/28 04:43:42;;;;;;;7.40;1.77;;;;;;;;;;5098036;28;20472;-69
2022/05/28 04:46:09;;;;;;;10.10;2.00;;;;;;;;;;5096168;28;20789;-70
2022/05/28 04:48:38;;;;;;;4.83;1.30;;;;;;;;;;5099732;28;20552;-70
2022/05/28 04:51:06;;;;;;;7.60;1.40;;;;;;;;;;5096902;28;20465;-69
2022/05/28 04:53:33;;;;;;;6.63;1.53;;;;;;;;;;5097358;28;20451;-70
2022/05/28 04:56:00;;;;;;;9.60;1.87;;;;;;;;;;5098160;28;20455;-70
2022/05/28 04:58:27;;;;;;;7.17;1.87;;;;;;;;;;5096891;28;20879;-69
2022/05/28 05:00:54;;;;;;;5.33;2.30;;;;;;;;;;5097258;28;20492;-69
2022/05/28 05:03:21;;;;;;;5.57;1.20;;;;;;;;;;5097291;28;20504;-70
2022/05/28 05:05:48;;;;;;;8.60;1.47;;;;;;;;;;5097085;28;20580;-70
2022/05/28 05:08:19;;;;;;;7.00;1.60;;;;;;;;;;5097033;28;20814;-70
2022/05/28 05:10:48;;;;;;;7.77;1.90;;;;;;;;;;5097325;28;20859;-70
2022/05/28 05:13:16;;;;;;;5.47;1.60;;;;;;;;;;5098077;28;20761;-70
2022/05/28 05:15:43;;;;;;;8.07;2.20;;;;;;;;;;5096860;28;20459;-70
2022/05/28 05:18:10;;;;;;;3.67;1.40;;;;;;;;;;5097603;28;20444;-70
2022/05/28 05:20:37;;;;;;;3.97;1.50;;;;;;;;;;5096972;28;20872;-71
2022/05/28 05:23:04;;;;;;;6.43;1.30;;;;;;;;;;5097387;28;20448;-71
2022/05/28 05:25:32;;;;;;;12.67;1.70;;;;;;;;;;5097047;28;20813;-70
2022/05/28 05:28:00;;;;;;;5.50;1.53;;;;;;;;;;5097014;28;20578;-70
2022/05/28 05:30:27;;;;;;;4.73;1.50;;;;;;;;;;5096512;28;20650;-70
2022/05/28 05:32:55;;;;;;;4.00;1.30;;;;;;;;;;5097133;28;20458;-70
2022/05/28 05:35:22;;;;;;;9.40;1.27;;;;;;;;;;5096697;28;20452;-70
2022/05/28 05:37:49;;;;;;;5.03;1.43;;;;;;;;;;5096664;28;20883;-70
2022/05/28 05:40:16;;;;;;;5.07;1.20;;;;;;;;;;5095863;28;20452;-70
2022/05/28 05:42:44;;;;;;;3.07;1.10;;;;;;;;;;5096414;28;20440;-70
2022/05/28 05:45:11;;;;;;;6.70;1.40;;;;;;;;;;5096703;28;20463;-70
2022/05/28 05:47:38;;;;;;;3.70;1.20;;;;;;;;;;5096172;28;20451;-70
2022/05/28 05:50:07;;;;;;;4.43;1.30;;;;;;;;;;5097009;28;20513;-70
2022/05/28 05:52:35;;;;;;;7.30;1.80;;;;;;;;;;5096009;28;20463;-69
2022/05/28 05:55:01;;;;;;;5.10;1.30;;;;;;;;;;5095632;28;20494;-71
2022/05/28 05:57:28;;;;;;;6.10;1.40;;;;;;;;;;5096216;28;20709;-70
2022/05/28 05:59:59;;;;;;;5.90;1.50;;;;;;;;;;5095357;28;20528;-71
2022/05/28 06:02:26;;;;;;;4.73;1.37;;;;;;;;;;5096982;28;20440;-71
2022/05/28 06:04:54;;;;;;;3.50;1.40;;;;;;;;;;5096288;28;20495;-71
2022/05/28 06:07:21;;;;;;;8.10;1.90;;;;;;;;;;5097391;28;20523;-72
2022/05/28 06:09:48;;;;;;;9.50;2.17;;;;;;;;;;5095589;28;20489;-71
2022/05/28 06:12:15;;;;;;;11.17;2.10;;;;;;;;;;5095688;28;20451;-71
2022/05/28 06:14:42;;;;;;;6.97;2.47;;;;;;;;;;5085126;28;20750;-71
2022/05/28 06:17:13;;;;;;;13.90;2.90;;;;;;;;;;5076904;28;20757;-71
2022/05/28 06:19:40;;;;;;;10.40;1.93;;;;;;;;;;5076578;28;20452;-71
2022/05/28 06:22:07;;;;;;;5.70;1.80;;;;;;;;;;5076586;28;20500;-71
2022/05/28 06:24:34;;;;;;;11.60;3.30;;;;;;;;;;5075157;28;20456;-71
2022/05/28 06:27:01;;;;;;;11.93;2.10;;;;;;;;;;5075634;28;20476;-71
2022/05/28 06:29:28;;;;;;;10.00;2.17;;;;;;;;;;5074888;28;21341;-71
2022/05/28 06:31:55;;;;;;;6.27;2.07;;;;;;;;;;5075500;28;20437;-71
2022/05/28 06:34:26;;;;;;;13.57;2.47;;;;;;;;;;5083515;28;20444;-71
2022/05/28 06:36:53;;;;;;;10.70;3.07;;;;;;;;;;5096126;28;20520;-70
2022/05/28 06:39:20;;;;;;;9.57;2.40;;;;;;;;;;5095827;28;20447;-71
2022/05/28 06:41:50;;;;;;;16.23;3.33;;;;;;;;;;5091461;28;20880;-71
2022/05/28 06:44:17;;;;;;;13.50;3.27;;;;;;;;;;5094907;28;20831;-71
2022/05/28 06:46:44;;;;;;;11.43;2.10;;;;;;;;;;5094854;28;20526;-70
2022/05/28 06:49:12;;;;;;;10.50;2.70;;;;;;;;;;5096880;28;20490;-70
2022/05/28 06:51:40;;;;;;;6.00;2.30;;;;;;;;;;5094374;28;20553;-71
2022/05/28 06:54:07;;;;;;;9.37;2.50;;;;;;;;;;5095600;28;20494;-71
2022/05/28 06:56:34;;;;;;;10.40;2.37;;;;;;;;;;5094814;28;20739;-71
2022/05/28 06:59:01;;;;;;;9.33;2.20;;;;;;;;;;5096031;28;20448;-71
2022/05/28 07:01:34;;;;;;;5.53;1.93;;;;;;;;;;5095111;28;20557;-71
2022/05/28 07:04:01;;;;;;;7.53;1.87;;;;;;;;;;5094871;28;20451;-71
2022/05/28 07:06:29;;;;;;;9.17;2.40;;;;;;;;;;5096235;28;20455;-71
2022/05/28 07:08:57;;;;;;;10.13;2.33;;;;;;;;;;5095938;28;20484;-71
2022/05/28 07:11:24;;;;;;;13.50;2.67;;;;;;;;;;5093811;28;20491;-71
2022/05/28 07:13:51;;;;;;;7.93;3.10;;;;;;;;;;5095477;27;20447;-71
2022/05/28 07:16:18;;;;;;;8.50;1.80;;;;;;;;;;5098200;28;20808;-71
2022/05/28 07:18:45;;;;;;;9.57;2.53;;;;;;;;;;5098236;28;20454;-72
2022/05/28 07:21:12;;;;;;;6.43;1.60;;;;;;;;;;5097581;28;20899;-71
2022/05/28 07:23:40;;;;;;;9.03;1.90;;;;;;;;;;5098679;28;20452;-71
2022/05/28 07:26:08;;;;;;;10.17;2.03;;;;;;;;;;5099815;28;20478;-71
2022/05/28 07:28:36;;;;;;;10.10;2.30;;;;;;;;;;5098049;28;20813;-71
2022/05/28 07:31:04;;;;;;;6.20;2.10;;;;;;;;;;5097912;28;20531;-71
2022/05/28 07:33:32;;;;;;;8.50;3.43;;;;;;;;;;5098394;28;20727;-70
2022/05/28 07:35:59;;;;;;;9.87;2.23;;;;;;;;;;5098934;28;20452;-71
2022/05/28 07:38:28;;;;;;;8.73;2.17;;;;;;;;;;5097304;28;20463;-70
2022/05/28 07:41:05;;;;;;;8.57;2.13;;;;;;;;;;5097609;28;21181;-70
2022/05/28 07:43:34;;;;;;;4.40;1.53;;;;;;;;;;5098048;28;20901;-71
2022/05/28 07:46:01;;;;;;;11.27;1.53;;;;;;;;;;5095416;28;20851;-71
2022/05/28 07:48:29;;;;;;;11.97;3.70;;;;;;;;;;5093909;28;20483;-71
2022/05/28 07:51:10;;;;;;;8.97;2.00;;;;;;;;;;5087591;28;20453;-71
2022/05/28 07:53:40;;;;;;;7.10;1.50;;;;;;;;;;5094686;28;20849;-69
2022/05/28 07:56:07;;;;;;;8.23;1.67;;;;;;;;;;5093614;28;20490;-72
2022/05/28 07:58:35;;;;;;;9.30;1.33;;;;;;;;;;5096393;28;20460;-72
2022/05/28 08:01:06;;;;;;;10.50;1.70;;;;;;;;;;5093108;28;20890;-72
2022/05/28 08:03:34;;;;;;;10.80;2.37;;;;;;;;;;5077471;28;20523;-71
2022/05/28 08:06:09;;;;;;;7.60;1.80;;;;;;;;;;5079469;28;20452;-73
2022/05/28 08:08:37;;;;;;;3.60;1.30;;;;;;;;;;5093506;28;20567;-71
2022/05/28 08:11:08;;;;;;;9.47;1.70;;;;;;;;;;5086036;28;20464;-71
2022/05/28 08:16:41;;;;;;;4.93;2.20;;;;;;;;;;5057529;28;20513;-70
2022/05/28 08:19:09;;;;;;;4.50;2.13;;;;;;;;;;5098749;28;20871;-70
2022/05/28 08:24:21;;;;;;;5.87;1.60;;;;;;;;;;5097064;28;20781;-71
2022/05/28 08:26:48;;;;;;;8.83;2.50;;;;;;;;;;5095467;28;20893;-71
2022/05/28 08:29:22;;;;;;;8.83;1.80;;;;;;;;;;5095972;28;20479;-71
2022/05/28 08:31:49;;;;;;;7.27;2.37;;;;;;;;;;5092094;28;21092;-70
2022/05/28 08:34:17;;;;;;;7.13;2.37;;;;;;;;;;5075700;28;20464;-70
2022/05/28 08:36:45;;;;;;;6.63;1.80;;;;;;;;;;5087692;28;20460;-70
2022/05/28 08:39:16;;;;;;;6.63;2.03;;;;;;;;;;5096310;28;20898;-70
2022/05/28 08:41:48;;;;;;;6.77;2.57;;;;;;;;;;5094881;28;20572;-70
2022/05/28 08:44:16;;;;;;;6.00;1.63;;;;;;;;;;5086127;28;20518;-70
2022/05/28 08:46:44;;;;;;;5.07;2.07;;;;;;;;;;5095538;28;20574;-70
2022/05/28 08:49:16;;;;;;;5.57;1.67;;;;;;;;;;5096680;28;20503;-70
2022/05/28 08:51:48;;;;;;;7.07;2.60;;;;;;;;;;5088945;28;20460;-69
2022/05/28 08:54:28;;;;;;;7.30;1.70;;;;;;;;;;5083605;28;20464;-70
2022/05/28 08:57:03;;;;;;;9.23;1.63;;;;;;;;;;5094056;28;20554;-68
2022/05/28 08:59:32;;;;;;;6.63;1.93;;;;;;;;;;5094787;28;21323;-68
2022/05/28 09:02:03;;;;;;;5.17;1.97;;;;;;;;;;5091789;28;20457;-70
2022/05/28 09:04:32;;;;;;;7.93;3.97;;;;;;;;;;5092091;28;20563;-70
2022/05/28 09:07:02;;;;;;;6.23;1.77;;;;;;;;;;5086411;28;20959;-70
2022/05/28 09:09:37;;;;;;;10.20;2.17;;;;;;;;;;5084702;28;20547;-69
2022/05/28 09:12:06;;;;;;;6.80;2.83;;;;;;;;;;5086184;28;20800;-71
2022/05/28 09:14:34;;;;;;;6.23;2.30;;;;;;;;;;5081191;28;20467;-70
2022/05/28 09:17:06;;;;;;;5.90;2.67;;;;;;;;;;5088883;28;20752;-71
2022/05/28 09:19:44;;;;;;;11.97;2.63;;;;;;;;;;5096302;28;20471;-71
2022/05/28 09:22:13;;;;;;;7.50;2.10;;;;;;;;;;5094734;28;20959;-70
2022/05/28 09:24:42;;;;;;;4.67;2.20;;;;;;;;;;5096919;28;20452;-70
2022/05/28 09:27:19;;;;;;;6.00;2.10;;;;;;;;;;5091901;28;20496;-71
2022/05/28 09:30:09;;;;;;;5.00;1.20;;;;;;;;;;5095547;28;20498;-71
2022/05/28 09:33:01;;;;;;;3.80;1.23;;;;;;;;;;5095104;28;20458;-71
2022/05/28 09:35:37;;;;;;;5.97;2.10;;;;;;;;;;5079573;28;20471;-70
2022/05/28 09:38:07;;;;;;;7.73;1.57;;;;;;;;;;5090211;28;20522;-70
2022/05/28 09:40:38;;;;;;;8.00;1.50;;;;;;;;;;5097294;27;20559;-70
2022/05/28 09:43:24;;;;;;;11.53;3.97;;;;;;;;;;5094676;28;20467;-69
2022/05/28 09:45:55;;;;;;;7.33;1.40;;;;;;;;;;5094510;28;20444;-70
2022/05/28 09:48:23;;;;;;;7.70;2.30;;;;;;;;;;5095517;28;20523;-70
2022/05/28 09:50:56;;;;;;;5.77;1.43;;;;;;;;;;5096018;28;20448;-70
2022/05/28 09:56:14;;;;;;;5.70;1.83;;;;;;;;;;5095775;28;20470;-69
2022/05/28 09:58:42;;;;;;;7.03;3.00;;;;;;;;;;5093973;28;20665;-71
2022/05/28 10:01:12;;;;;;;10.83;1.80;;;;;;;;;;5092741;28;20474;-70
2022/05/28 10:06:49;;;;;;;8.13;1.87;;;;;;;;;;5032310;28;20552;-71
2022/05/28 10:09:19;;;;;;;6.53;1.83;;;;;;;;;;5065879;28;20586;-69
2022/05/28 10:11:51;;;;;;;8.27;1.37;;;;;;;;;;5074869;28;20464;-72
2022/05/28 10:14:20;;;;;;;5.77;1.37;;;;;;;;;;5074532;28;20465;-71
2022/05/28 10:16:53;;;;;;;17.57;6.63;;;;;;;;;;5073551;28;20456;-69
2022/05/28 10:19:41;;;;;;;7.50;2.30;;;;;;;;;;5076848;28;20453;-72
2022/05/28 10:22:17;;;;;;;5.90;1.67;;;;;;;;;;5074300;28;20589;-71
2022/05/28 10:24:46;;;;;;;6.93;1.97;;;;;;;;;;5083299;28;20464;-69
2022/05/28 10:27:29;;;;;;;8.60;2.10;;;;;;;;;;5074648;28;20472;-70
2022/05/28 10:29:57;;;;;;;9.33;2.43;;;;;;;;;;5074678;28;20491;-70
2022/05/28 10:32:28;;;;;;;7.10;2.10;;;;;;;;;;5078215;28;20470;-70
2022/05/28 10:35:00;;;;;;;12.80;2.20;;;;;;;;;;5094057;28;20444;-70
2022/05/28 10:37:28;;;;;;;7.57;2.30;;;;;;;;;;5095832;28;20467;-70
2022/05/28 10:40:04;;;;;;;6.93;1.97;;;;;;;;;;5094639;28;20622;-69
2022/05/28 10:42:34;;;;;;;6.43;1.60;;;;;;;;;;5095522;28;20459;-68
2022/05/28 10:45:02;;;;;;;13.07;2.37;;;;;;;;;;5095338;28;20800;-70
2022/05/28 10:47:52;;;;;;;11.70;3.63;;;;;;;;;;5087969;28;20891;-70
2022/05/28 10:50:25;;;;;;;14.00;2.73;;;;;;;;;;5080332;28;21029;-71
2022/05/28 10:52:58;;;;;;;3.60;1.40;;;;;;;;;;5074239;28;20555;-70
2022/05/28 10:55:32;;;;;;;6.27;2.50;;;;;;;;;;5084356;27;20460;-70
2022/05/28 10:58:12;;;;;;;10.17;2.10;;;;;;;;;;5099962;27;20466;-71
2022/05/28 11:00:47;;;;;;;8.87;1.93;;;;;;;;;;5105699;28;20871;-70
2022/05/28 11:03:30;;;;;;;6.10;2.00;;;;;;;;;;5078214;28;20554;-70
2022/05/28 11:06:14;;;;;;;10.23;2.70;;;;;;;;;;5078318;28;20507;-72
2022/05/28 11:08:53;;;;;;;4.63;1.07;;;;;;;;;;5087252;28;20758;-70
2022/05/28 11:11:34;;;;;;;9.10;1.67;;;;;;;;;;5103391;28;20454;-71
2022/05/28 11:14:10;;;;;;;5.97;1.57;;;;;;;;;;5081603;28;20743;-70
2022/05/28 11:16:55;;;;;;;8.00;1.10;;;;;;;;;;5090185;28;20545;-72
2022/05/28 11:19:29;;;;;;;6.23;1.43;;;;;;;;;;5091767;28;20471;-71
2022/05/28 11:22:16;;;;;;;9.33;2.27;;;;;;;;;;5092787;27;20527;-71
2022/05/28 11:24:52;;;;;;;10.17;1.70;;;;;;;;;;5074855;28;20466;-70
2022/05/28 11:27:26;;;;;;;6.60;1.10;;;;;;;;;;5089478;28;20527;-71
2022/05/28 11:29:56;;;;;;;8.17;1.40;;;;;;;;;;5091340;28;20610;-72
2022/05/28 11:32:28;;;;;;;7.07;1.40;;;;;;;;;;5109798;27;20488;-70
2022/05/28 11:34:57;;;;;;;5.73;1.40;;;;;;;;;;5113610;27;20499;-70
2022/05/28 11:37:26;;;;;;;6.97;1.83;;;;;;;;;;5097949;28;20477;-70
2022/05/28 11:40:00;;;;;;;8.67;1.93;;;;;;;;;;5093375;28;20497;-71
2022/05/28 11:42:37;;;;;;;4.17;1.03;;;;;;;;;;5093723;28;20463;-70
2022/05/28 11:45:10;;;;;;;7.37;2.80;;;;;;;;;;5094927;28;20486;-71
2022/05/28 11:47:54;;;;;;;6.17;1.57;;;;;;;;;;5091462;28;20514;-71
2022/05/28 11:53:24;;;;;;;5.20;1.27;;;;;;;;;;5089668;28;20898;-72
2022/05/28 11:55:54;;;;;;;3.87;0.80;;;;;;;;;;5094159;28;20716;-72
2022/05/28 11:58:23;;;;;;;2.47;0.90;;;;;;;;;;5094124;28;20479;-72
2022/05/28 12:00:55;;;;;;;6.10;1.07;;;;;;;;;;5096897;28;20522;-72
2022/05/28 12:06:15;;;;;;;4.00;1.40;;;;;;;;;;5096816;28;20550;-71
2022/05/28 12:08:45;;;;;;;4.70;1.17;;;;;;;;;;5097062;28;20531;-70
2022/05/28 12:11:32;;;;;;;3.77;1.50;;;;;;;;;;5097898;28;20450;-71
2022/05/28 12:14:05;;;;;;;12.00;1.70;;;;;;;;;;5097086;28;20501;-71
2022/05/28 12:16:34;;;;;;;10.73;4.00;;;;;;;;;;5095651;28;20444;-71
2022/05/28 12:19:07;;;;;;;6.03;1.90;;;;;;;;;;5103302;28;20474;-72
2022/05/28 12:21:41;;;;;;;8.07;2.30;;;;;;;;;;5088254;28;20526;-72
2022/05/28 12:24:10;;;;;;;7.87;2.00;;;;;;;;;;5079934;28;20464;-71
2022/05/28 12:26:50;;;;;;;7.87;1.80;;;;;;;;;;5080019;28;20456;-71
2022/05/28 12:29:35;;;;;;;5.23;1.63;;;;;;;;;;5078391;28;20582;-72
2022/05/28 12:32:16;;;;;;;5.37;1.20;;;;;;;;;;5079369;28;20525;-72
2022/05/28 12:34:55;;;;;;;8.87;2.33;;;;;;;;;;5080522;28;20549;-74
2022/05/28 12:37:33;;;;;;;7.03;1.90;;;;;;;;;;5076375;28;20551;-71
2022/05/28 12:40:07;;;;;;;6.33;1.47;;;;;;;;;;5075945;28;20872;-72
2022/05/28 12:42:40;;;;;;;7.03;1.93;;;;;;;;;;5076466;28;20445;-72
2022/05/28 12:45:16;;;;;;;7.57;1.40;;;;;;;;;;5076160;28;20841;-71
2022/05/28 12:47:52;;;;;;;6.27;2.10;;;;;;;;;;5088377;28;20541;-72
2022/05/28 12:50:28;;;;;;;5.47;1.47;;;;;;;;;;5078300;28;20920;-72
2022/05/28 12:53:01;;;;;;;7.80;2.23;;;;;;;;;;5077907;28;20468;-73
2022/05/28 12:55:35;;;;;;;6.13;2.20;;;;;;;;;;5076931;28;20539;-73
2022/05/28 12:58:11;;;;;;;9.70;2.53;;;;;;;;;;5076288;28;20872;-73
2022/05/28 13:00:54;;;;;;;7.07;2.30;;;;;;;;;;5075758;28;20876;-72
2022/05/28 13:03:26;;;;;;;6.80;1.97;;;;;;;;;;5077272;28;20460;-72
2022/05/28 13:05:54;;;;;;;6.63;1.87;;;;;;;;;;5084377;28;20744;-71
2022/05/28 13:08:25;;;;;;;6.70;1.80;;;;;;;;;;5094872;28;20579;-71
2022/05/28 13:10:54;;;;;;;8.97;2.60;;;;;;;;;;5095166;27;20455;-71
2022/05/28 13:13:46;;;;;;;8.30;1.87;;;;;;;;;;5095056;28;20555;-71
2022/05/28 13:16:31;;;;;;;5.40;1.40;;;;;;;;;;5076359;28;20460;-73
2022/05/28 13:19:19;;;;;;;7.50;1.93;;;;;;;;;;5095156;28;21043;-71
2022/05/28 13:22:04;;;;;;;12.73;1.90;;;;;;;;;;5089363;28;20456;-72
2022/05/28 13:24:47;;;;;;;11.00;2.50;;;;;;;;;;5089704;28;20522;-72
2022/05/28 13:27:24;;;;;;;8.60;1.87;;;;;;;;;;5108385;27;20820;-72
2022/05/28 13:30:09;;;;;;;7.80;1.93;;;;;;;;;;5090096;28;20497;-71
2022/05/28 13:32:39;;;;;;;11.37;2.80;;;;;;;;;;5090519;28;20460;-71
2022/05/28 13:35:25;;;;;;;5.83;1.17;;;;;;;;;;5091102;28;20494;-72
2022/05/28 13:37:54;;;;;;;8.27;1.53;;;;;;;;;;5115419;27;20455;-72
2022/05/28 13:40:29;;;;;;;4.37;1.50;;;;;;;;;;5105082;28;20456;-72
2022/05/28 13:42:59;;;;;;;5.97;1.47;;;;;;;;;;5092940;28;20531;-72
2022/05/28 13:45:31;;;;;;;3.93;2.13;;;;;;;;;;5093975;28;20618;-72
2022/05/28 13:48:04;;;;;;;8.03;1.37;;;;;;;;;;5094664;28;20452;-72
2022/05/28 13:50:39;;;;;;;6.90;2.67;;;;;;;;;;5095805;28;20451;-70
2022/05/28 13:53:08;;;;;;;6.40;1.50;;;;;;;;;;5094062;28;20470;-71
2022/05/28 13:55:42;;;;;;;9.73;1.93;;;;;;;;;;5093518;28;20455;-71
2022/05/28 13:58:19;;;;;;;5.20;1.40;;;;;;;;;;5094882;28;20800;-71
2022/05/28 14:00:53;;;;;;;7.20;1.73;;;;;;;;;;5093228;28;20471;-70
2022/05/28 14:03:25;;;;;;;13.70;2.17;;;;;;;;;;5091173;28;20475;-71
2022/05/28 14:05:52;;;;;;;7.40;2.00;;;;;;;;;;5093537;28;20451;-71
2022/05/28 14:08:22;;;;;;;13.70;3.40;;;;;;;;;;5094284;28;20478;-72
2022/05/28 14:10:52;;;;;;;8.53;2.40;;;;;;;;;;5093045;28;20512;-71
2022/05/28 14:13:21;;;;;;;5.03;1.50;;;;;;;;;;5095391;28;20486;-73
2022/05/28 14:15:51;;;;;;;7.70;2.07;;;;;;;;;;5091642;28;20550;-71
2022/05/28 14:18:20;;;;;;;4.70;1.43;;;;;;;;;;5093814;28;20478;-71
2022/05/28 14:20:50;;;;;;;11.80;2.30;;;;;;;;;;5087109;28;20898;-72
2022/05/28 14:23:25;;;;;;;6.93;1.63;;;;;;;;;;5073815;28;20477;-72
2022/05/28 14:26:00;;;;;;;7.33;1.77;;;;;;;;;;5075380;28;20557;-71
2022/05/28 14:28:30;;;;;;;7.43;2.60;;;;;;;;;;5090825;28;20577;-71
2022/05/28 14:31:01;;;;;;;10.27;2.07;;;;;;;;;;5093725;28;20546;-72
2022/05/28 14:33:29;;;;;;;10.37;3.63;;;;;;;;;;5094599;28;20498;-72
2022/05/28 14:36:07;;;;;;;8.53;1.93;;;;;;;;;;5094760;28;20940;-72
2022/05/28 14:38:37;;;;;;;10.00;1.93;;;;;;;;;;5085936;28;20541;-71
2022/05/28 14:41:11;;;;;;;5.60;1.87;;;;;;;;;;5082486;28;20469;-70
2022/05/28 14:43:39;;;;;;;5.60;1.63;;;;;;;;;;5094583;28;20449;-70
2022/05/28 14:46:16;;;;;;;9.87;1.50;;;;;;;;;;5093410;28;20500;-70
2022/05/28 14:48:44;;;;;;;9.73;2.10;;;;;;;;;;5088126;28;20475;-70
2022/05/28 14:51:14;;;;;;;9.13;2.40;;;;;;;;;;5093390;28;20447;-70
2022/05/28 14:53:49;;;;;;;10.43;1.90;;;;;;;;;;5088744;28;20566;-70
2022/05/28 14:56:28;;;;;;;8.50;1.60;;;;;;;;;;5096113;28;20795;-71
2022/05/28 14:58:58;;;;;;;6.63;1.77;;;;;;;;;;5091347;28;20471;-70
2022/05/28 15:01:27;;;;;;;5.47;1.70;;;;;;;;;;5074774;28;20453;-70
2022/05/28 15:04:11;;;;;;;9.10;1.70;;;;;;;;;;5088628;28;20450;-71
2022/05/28 15:06:50;;;;;;;6.93;1.73;;;;;;;;;;5088505;28;20494;-71
2022/05/28 15:09:24;;;;;;;5.20;1.20;;;;;;;;;;5093352;28;20480;-70
2022/05/28 15:12:01;;;;;;;7.73;1.87;;;;;;;;;;5094836;28;20480;-70
2022/05/28 15:14:30;;;;;;;6.37;1.53;;;;;;;;;;5114281;27;20503;-71
2022/05/28 15:16:58;;;;;;;10.63;1.87;;;;;;;;;;5083304;28;20472;-70
2022/05/28 15:19:26;;;;;;;5.50;1.30;;;;;;;;;;5073901;28;20873;-70